sensor_id;sensor_type;location;lat;lon;timestamp;temperature;humidity
75821;DHT22;64454;51.984;9.838;2023-11-19T00:00:25;7.50;99.90
75821;DHT22;64454;51.984;9.838;2023-11-19T00:02:52;7.50;99.90
75821;DHT22;64454;51.984;9.838;2023-11-19T00:05:18;7.50;99.90
75821;DHT22;64454;51.984;9.838;2023-11-19T00:07:45;7.50;99.90
75821;DHT22;64454;51.984;9.838;2023-11-19T00:10:13;7.50;99.90
75821;DHT22;64454;51.984;9.838;2023-11-19T00:12:43;7.60;99.90
75821;DHT22;64454;51.984;9.838;2023-11-19T00:15:10;7.70;99.90
75821;DHT22;64454;51.984;9.838;2023-11-19T00:17:37;7.70;99.90
75821;DHT22;64454;51.984;9.838;2023-11-19T00:20:05;7.70;99.90
75821;DHT22;64454;51.984;9.838;2023-11-19T00:22:33;7.70;99.90
75821;DHT22;64454;51.984;9.838;2023-11-19T00:25:00;7.70;99.90
75821;DHT22;64454;51.984;9.838;2023-11-19T00:27:26;7.70;99.90
75821;DHT22;64454;51.984;9.838;2023-11-19T00:29:52;7.80;99.90
75821;DHT22;64454;51.984;9.838;2023-11-19T00:32:18;7.80;99.90
75821;DHT22;64454;51.984;9.838;2023-11-19T00:34:44;7.80;99.90
75821;DHT22;64454;51.984;9.838;2023-11-19T00:37:10;7.80;99.90
75821;DHT22;64454;51.984;9.838;2023-11-19T00:39:36;7.70;99.90
75821;DHT22;64454;51.984;9.838;2023-11-19T00:42:04;7.80;99.90
75821;DHT22;64454;51.984;9.838;2023-11-19T00:44:30;7.80;99.90
75821;DHT22;64454;51.984;9.838;2023-11-19T00:46:57;7.80;99.90
75821;DHT22;64454;51.984;9.838;2023-11-19T00:49:23;7.90;99.90
75821;DHT22;64454;51.984;9.838;2023-11-19T00:51:49;8.00;99.90
75821;DHT22;64454;51.984;9.838;2023-11-19T00:54:15;8.00;99.90
75821;DHT22;64454;51.984;9.838;2023-11-19T00:56:41;8.00;99.90
75821;DHT22;64454;51.984;9.838;2023-11-19T00:59:08;8.00;99.90
75821;DHT22;64454;51.984;9.838;2023-11-19T01:01:34;8.10;99.90
75821;DHT22;64454;51.984;9.838;2023-11-19T01:04:00;8.10;99.90
75821;DHT22;64454;51.984;9.838;2023-11-19T01:06:27;8.10;99.90
75821;DHT22;64454;51.984;9.838;2023-11-19T01:08:54;8.10;99.90
75821;DHT22;64454;51.984;9.838;2023-11-19T01:11:20;8.20;99.90
75821;DHT22;64454;51.984;9.838;2023-11-19T01:13:47;8.20;99.90
75821;DHT22;64454;51.984;9.838;2023-11-19T01:16:14;8.20;99.90
75821;DHT22;64454;51.984;9.838;2023-11-19T01:18:40;8.20;99.90
75821;DHT22;64454;51.984;9.838;2023-11-19T01:21:06;8.30;99.90
75821;DHT22;64454;51.984;9.838;2023-11-19T01:23:32;8.40;99.90
75821;DHT22;64454;51.984;9.838;2023-11-19T01:25:59;8.50;99.90
75821;DHT22;64454;51.984;9.838;2023-11-19T01:28:25;8.50;99.90
75821;DHT22;64454;51.984;9.838;2023-11-19T01:30:52;8.60;99.90
75821;DHT22;64454;51.984;9.838;2023-11-19T01:33:19;8.60;99.90
75821;DHT22;64454;51.984;9.838;2023-11-19T01:35:46;8.60;99.90
75821;DHT22;64454;51.984;9.838;2023-11-19T01:38:13;8.60;99.90
75821;DHT22;64454;51.984;9.838;2023-11-19T01:40:39;8.70;99.90
75821;DHT22;64454;51.984;9.838;2023-11-19T01:43:05;8.70;99.90
75821;DHT22;64454;51.984;9.838;2023-11-19T01:45:31;8.70;99.90
75821;DHT22;64454;51.984;9.838;2023-11-19T01:48:02;8.80;99.90
75821;DHT22;64454;51.984;9.838;2023-11-19T01:50:30;8.80;99.90
75821;DHT22;64454;51.984;9.838;2023-11-19T01:52:58;8.80;99.90
75821;DHT22;64454;51.984;9.838;2023-11-19T01:55:26;8.80;99.90
75821;DHT22;64454;51.984;9.838;2023-11-19T01:57:55;8.70;99.90
75821;DHT22;64454;51.984;9.838;2023-11-19T02:00:26;8.80;99.90
75821;DHT22;64454;51.984;9.838;2023-11-19T02:02:52;8.70;99.90
75821;DHT22;64454;51.984;9.838;2023-11-19T02:05:20;8.80;99.90
75821;DHT22;64454;51.984;9.838;2023-11-19T02:07:47;8.80;99.90
75821;DHT22;64454;51.984;9.838;2023-11-19T02:10:15;8.80;99.90
75821;DHT22;64454;51.984;9.838;2023-11-19T02:12:44;8.80;99.90
75821;DHT22;64454;51.984;9.838;2023-11-19T02:15:11;8.90;99.90
75821;DHT22;64454;51.984;9.838;2023-11-19T02:17:38;8.90;99.90
75821;DHT22;64454;51.984;9.838;2023-11-19T02:20:05;9.00;99.90
75821;DHT22;64454;51.984;9.838;2023-11-19T02:22:34;9.00;99.90
75821;DHT22;64454;51.984;9.838;2023-11-19T02:25:04;9.10;99.90
75821;DHT22;64454;51.984;9.838;2023-11-19T02:27:46;9.00;99.90
75821;DHT22;64454;51.984;9.838;2023-11-19T02:30:17;9.10;99.90
75821;DHT22;64454;51.984;9.838;2023-11-19T02:32:43;9.10;99.90
75821;DHT22;64454;51.984;9.838;2023-11-19T02:35:09;9.10;99.90
75821;DHT22;64454;51.984;9.838;2023-11-19T02:37:35;9.20;99.90
75821;DHT22;64454;51.984;9.838;2023-11-19T02:40:01;9.10;99.90
75821;DHT22;64454;51.984;9.838;2023-11-19T02:42:30;9.10;99.90
75821;DHT22;64454;51.984;9.838;2023-11-19T02:44:57;9.10;99.90
75821;DHT22;64454;51.984;9.838;2023-11-19T02:47:23;9.20;99.90
75821;DHT22;64454;51.984;9.838;2023-11-19T02:49:49;9.20;99.90
75821;DHT22;64454;51.984;9.838;2023-11-19T02:52:16;9.20;99.90
75821;DHT22;64454;51.984;9.838;2023-11-19T02:54:42;9.20;99.90
75821;DHT22;64454;51.984;9.838;2023-11-19T02:57:09;9.30;99.90
75821;DHT22;64454;51.984;9.838;2023-11-19T02:59:39;9.30;99.90
75821;DHT22;64454;51.984;9.838;2023-11-19T03:02:09;9.40;99.90
75821;DHT22;64454;51.984;9.838;2023-11-19T03:04:37;9.40;99.90
75821;DHT22;64454;51.984;9.838;2023-11-19T03:07:05;9.40;99.90
75821;DHT22;64454;51.984;9.838;2023-11-19T03:09:32;9.50;99.90
75821;DHT22;64454;51.984;9.838;2023-11-19T03:11:59;9.60;99.90
75821;DHT22;64454;51.984;9.838;2023-11-19T03:14:25;9.60;99.90
75821;DHT22;64454;51.984;9.838;2023-11-19T03:16:51;9.50;99.90
75821;DHT22;64454;51.984;9.838;2023-11-19T03:19:18;9.60;99.90
75821;DHT22;64454;51.984;9.838;2023-11-19T03:21:44;9.60;99.90
75821;DHT22;64454;51.984;9.838;2023-11-19T03:24:13;9.60;99.90
75821;DHT22;64454;51.984;9.838;2023-11-19T03:26:42;9.70;99.90
75821;DHT22;64454;51.984;9.838;2023-11-19T03:29:08;9.60;99.90
75821;DHT22;64454;51.984;9.838;2023-11-19T03:31:34;9.70;99.90
75821;DHT22;64454;51.984;9.838;2023-11-19T03:34:01;9.80;99.90
75821;DHT22;64454;51.984;9.838;2023-11-19T03:36:32;9.70;99.90
75821;DHT22;64454;51.984;9.838;2023-11-19T03:38:58;9.80;99.90
75821;DHT22;64454;51.984;9.838;2023-11-19T03:41:24;9.80;99.90
75821;DHT22;64454;51.984;9.838;2023-11-19T03:43:50;9.80;99.90
75821;DHT22;64454;51.984;9.838;2023-11-19T03:46:17;9.70;99.90
75821;DHT22;64454;51.984;9.838;2023-11-19T03:48:44;9.70;99.90
75821;DHT22;64454;51.984;9.838;2023-11-19T03:51:11;9.70;99.90
75821;DHT22;64454;51.984;9.838;2023-11-19T03:53:41;9.80;99.90
75821;DHT22;64454;51.984;9.838;2023-11-19T03:56:08;9.80;99.90
75821;DHT22;64454;51.984;9.838;2023-11-19T03:58:35;9.80;99.90
75821;DHT22;64454;51.984;9.838;2023-11-19T04:01:01;9.90;99.90
75821;DHT22;64454;51.984;9.838;2023-11-19T04:03:27;9.90;99.90
75821;DHT22;64454;51.984;9.838;2023-11-19T04:05:54;10.00;99.90
75821;DHT22;64454;51.984;9.838;2023-11-19T04:08:20;10.00;99.90
75821;DHT22;64454;51.984;9.838;2023-11-19T04:10:47;9.90;99.90
75821;DHT22;64454;51.984;9.838;2023-11-19T04:13:13;9.90;99.90
75821;DHT22;64454;51.984;9.838;2023-11-19T04:15:39;9.90;99.90
75821;DHT22;64454;51.984;9.838;2023-11-19T04:18:05;9.90;99.90
75821;DHT22;64454;51.984;9.838;2023-11-19T04:20:32;10.00;99.90
75821;DHT22;64454;51.984;9.838;2023-11-19T04:22:58;10.00;99.90
75821;DHT22;64454;51.984;9.838;2023-11-19T04:25:26;10.00;99.90
75821;DHT22;64454;51.984;9.838;2023-11-19T04:27:52;9.90;99.90
75821;DHT22;64454;51.984;9.838;2023-11-19T04:30:19;10.00;99.90
75821;DHT22;64454;51.984;9.838;2023-11-19T04:32:45;10.00;99.90
75821;DHT22;64454;51.984;9.838;2023-11-19T04:35:11;10.00;99.90
75821;DHT22;64454;51.984;9.838;2023-11-19T04:37:37;10.10;99.90
75821;DHT22;64454;51.984;9.838;2023-11-19T04:40:05;10.20;99.90
75821;DHT22;64454;51.984;9.838;2023-11-19T04:42:32;10.20;99.90
75821;DHT22;64454;51.984;9.838;2023-11-19T04:44:59;10.20;99.90
75821;DHT22;64454;51.984;9.838;2023-11-19T04:47:25;10.30;99.90
75821;DHT22;64454;51.984;9.838;2023-11-19T04:49:51;10.30;99.90
75821;DHT22;64454;51.984;9.838;2023-11-19T04:52:17;10.40;99.90
75821;DHT22;64454;51.984;9.838;2023-11-19T04:54:44;10.40;99.90
75821;DHT22;64454;51.984;9.838;2023-11-19T04:57:10;10.40;99.90
75821;DHT22;64454;51.984;9.838;2023-11-19T04:59:36;10.50;99.90
75821;DHT22;64454;51.984;9.838;2023-11-19T05:02:03;10.50;99.90
75821;DHT22;64454;51.984;9.838;2023-11-19T05:04:30;10.50;99.90
75821;DHT22;64454;51.984;9.838;2023-11-19T05:06:56;10.50;99.90
75821;DHT22;64454;51.984;9.838;2023-11-19T05:09:22;10.50;99.90
75821;DHT22;64454;51.984;9.838;2023-11-19T05:11:48;10.60;99.90
75821;DHT22;64454;51.984;9.838;2023-11-19T05:14:14;10.60;99.90
75821;DHT22;64454;51.984;9.838;2023-11-19T05:16:41;10.70;99.90
75821;DHT22;64454;51.984;9.838;2023-11-19T05:19:08;10.70;99.90
75821;DHT22;64454;51.984;9.838;2023-11-19T05:21:35;10.90;99.90
75821;DHT22;64454;51.984;9.838;2023-11-19T05:24:01;10.90;99.90
75821;DHT22;64454;51.984;9.838;2023-11-19T05:26:30;11.00;99.90
75821;DHT22;64454;51.984;9.838;2023-11-19T05:28:56;11.10;99.90
75821;DHT22;64454;51.984;9.838;2023-11-19T05:31:23;11.10;99.90
75821;DHT22;64454;51.984;9.838;2023-11-19T05:33:49;11.10;99.90
75821;DHT22;64454;51.984;9.838;2023-11-19T05:36:15;11.20;99.90
75821;DHT22;64454;51.984;9.838;2023-11-19T05:38:42;11.40;99.90
75821;DHT22;64454;51.984;9.838;2023-11-19T05:41:10;11.30;99.90
75821;DHT22;64454;51.984;9.838;2023-11-19T05:43:36;11.30;99.90
75821;DHT22;64454;51.984;9.838;2023-11-19T05:46:03;11.30;99.90
75821;DHT22;64454;51.984;9.838;2023-11-19T05:48:29;11.40;99.90
75821;DHT22;64454;51.984;9.838;2023-11-19T05:50:56;11.30;99.90
75821;DHT22;64454;51.984;9.838;2023-11-19T05:53:22;11.30;99.90
75821;DHT22;64454;51.984;9.838;2023-11-19T05:55:49;11.30;99.90
75821;DHT22;64454;51.984;9.838;2023-11-19T05:58:23;11.20;99.90
75821;DHT22;64454;51.984;9.838;2023-11-19T06:00:51;11.30;99.90
75821;DHT22;64454;51.984;9.838;2023-11-19T06:03:18;11.30;99.90
75821;DHT22;64454;51.984;9.838;2023-11-19T06:05:44;11.30;99.90
75821;DHT22;64454;51.984;9.838;2023-11-19T06:08:11;11.40;99.90
75821;DHT22;64454;51.984;9.838;2023-11-19T06:10:39;11.40;99.90
75821;DHT22;64454;51.984;9.838;2023-11-19T06:13:06;11.50;99.90
75821;DHT22;64454;51.984;9.838;2023-11-19T06:15:33;11.40;99.90
75821;DHT22;64454;51.984;9.838;2023-11-19T06:17:59;11.40;99.90
75821;DHT22;64454;51.984;9.838;2023-11-19T06:20:28;11.40;99.90
75821;DHT22;64454;51.984;9.838;2023-11-19T06:22:54;11.40;99.90
75821;DHT22;64454;51.984;9.838;2023-11-19T06:25:20;11.40;99.90
75821;DHT22;64454;51.984;9.838;2023-11-19T06:27:47;11.50;99.90
75821;DHT22;64454;51.984;9.838;2023-11-19T06:30:13;11.50;99.90
75821;DHT22;64454;51.984;9.838;2023-11-19T06:32:40;11.50;99.90
75821;DHT22;64454;51.984;9.838;2023-11-19T06:35:06;11.50;99.90
75821;DHT22;64454;51.984;9.838;2023-11-19T06:37:33;11.50;99.90
75821;DHT22;64454;51.984;9.838;2023-11-19T06:39:59;11.50;99.90
75821;DHT22;64454;51.984;9.838;2023-11-19T06:42:25;11.50;99.90
75821;DHT22;64454;51.984;9.838;2023-11-19T06:44:52;11.50;99.90
75821;DHT22;64454;51.984;9.838;2023-11-19T06:47:18;11.50;99.90
75821;DHT22;64454;51.984;9.838;2023-11-19T06:49:45;11.50;99.90
75821;DHT22;64454;51.984;9.838;2023-11-19T06:52:11;11.60;99.90
75821;DHT22;64454;51.984;9.838;2023-11-19T06:54:38;11.60;99.90
75821;DHT22;64454;51.984;9.838;2023-11-19T06:57:05;11.60;99.90
75821;DHT22;64454;51.984;9.838;2023-11-19T06:59:31;11.60;99.90
75821;DHT22;64454;51.984;9.838;2023-11-19T07:01:58;11.60;99.90
75821;DHT22;64454;51.984;9.838;2023-11-19T07:04:24;11.60;99.90
75821;DHT22;64454;51.984;9.838;2023-11-19T07:06:50;11.70;99.90
75821;DHT22;64454;51.984;9.838;2023-11-19T07:09:17;11.70;99.90
75821;DHT22;64454;51.984;9.838;2023-11-19T07:11:44;11.80;99.90
75821;DHT22;64454;51.984;9.838;2023-11-19T07:14:12;11.90;99.90
75821;DHT22;64454;51.984;9.838;2023-11-19T07:16:38;11.90;99.90
75821;DHT22;64454;51.984;9.838;2023-11-19T07:19:05;11.90;99.90
75821;DHT22;64454;51.984;9.838;2023-11-19T07:21:32;11.90;99.90
75821;DHT22;64454;51.984;9.838;2023-11-19T07:23:59;11.80;99.90
75821;DHT22;64454;51.984;9.838;2023-11-19T07:26:25;11.80;99.90
75821;DHT22;64454;51.984;9.838;2023-11-19T07:28:52;11.80;99.90
75821;DHT22;64454;51.984;9.838;2023-11-19T07:31:18;11.90;99.90
75821;DHT22;64454;51.984;9.838;2023-11-19T07:33:45;12.00;99.90
75821;DHT22;64454;51.984;9.838;2023-11-19T07:36:12;12.00;99.90
75821;DHT22;64454;51.984;9.838;2023-11-19T07:38:38;12.00;99.90
75821;DHT22;64454;51.984;9.838;2023-11-19T07:41:05;12.00;99.90
75821;DHT22;64454;51.984;9.838;2023-11-19T07:43:32;12.10;99.90
75821;DHT22;64454;51.984;9.838;2023-11-19T07:45:58;12.10;99.90
75821;DHT22;64454;51.984;9.838;2023-11-19T07:48:24;12.10;87.70
75821;DHT22;64454;51.984;9.838;2023-11-19T07:50:52;12.20;81.60
75821;DHT22;64454;51.984;9.838;2023-11-19T07:53:19;12.30;90.50
75821;DHT22;64454;51.984;9.838;2023-11-19T07:55:45;12.30;83.20
75821;DHT22;64454;51.984;9.838;2023-11-19T07:58:12;12.30;52.00
75821;DHT22;64454;51.984;9.838;2023-11-19T08:00:38;12.30;47.30
75821;DHT22;64454;51.984;9.838;2023-11-19T08:03:05;12.30;45.70
75821;DHT22;64454;51.984;9.838;2023-11-19T08:05:32;12.30;38.80
75821;DHT22;64454;51.984;9.838;2023-11-19T08:07:58;12.20;36.00
75821;DHT22;64454;51.984;9.838;2023-11-19T08:10:26;12.30;26.90
75821;DHT22;64454;51.984;9.838;2023-11-19T08:12:52;12.30;23.70
75821;DHT22;64454;51.984;9.838;2023-11-19T08:15:18;12.20;29.60
75821;DHT22;64454;51.984;9.838;2023-11-19T08:17:45;12.30;38.20
75821;DHT22;64454;51.984;9.838;2023-11-19T08:20:11;12.30;13.20
75821;DHT22;64454;51.984;9.838;2023-11-19T08:22:37;12.30;14.30
75821;DHT22;64454;51.984;9.838;2023-11-19T08:25:04;12.40;10.00
75821;DHT22;64454;51.984;9.838;2023-11-19T08:27:31;12.40;13.80
75821;DHT22;64454;51.984;9.838;2023-11-19T08:29:58;12.40;7.10
75821;DHT22;64454;51.984;9.838;2023-11-19T08:32:24;12.50;1.00
75821;DHT22;64454;51.984;9.838;2023-11-19T08:34:50;12.70;1.00
75821;DHT22;64454;51.984;9.838;2023-11-19T08:37:17;13.00;1.00
75821;DHT22;64454;51.984;9.838;2023-11-19T08:39:46;13.20;1.00
75821;DHT22;64454;51.984;9.838;2023-11-19T08:42:12;13.10;1.00
75821;DHT22;64454;51.984;9.838;2023-11-19T08:44:39;13.20;1.00
75821;DHT22;64454;51.984;9.838;2023-11-19T08:47:09;13.10;1.00
75821;DHT22;64454;51.984;9.838;2023-11-19T08:49:35;12.90;1.00
75821;DHT22;64454;51.984;9.838;2023-11-19T08:52:01;13.00;1.00
75821;DHT22;64454;51.984;9.838;2023-11-19T08:54:27;13.10;1.00
75821;DHT22;64454;51.984;9.838;2023-11-19T08:56:54;13.10;1.00
75821;DHT22;64454;51.984;9.838;2023-11-19T08:59:20;13.10;1.00
75821;DHT22;64454;51.984;9.838;2023-11-19T09:01:46;13.00;1.00
75821;DHT22;64454;51.984;9.838;2023-11-19T09:04:13;13.00;1.00
75821;DHT22;64454;51.984;9.838;2023-11-19T09:06:39;13.00;1.00
75821;DHT22;64454;51.984;9.838;2023-11-19T09:09:06;13.00;1.00
75821;DHT22;64454;51.984;9.838;2023-11-19T09:11:32;13.00;1.00
75821;DHT22;64454;51.984;9.838;2023-11-19T09:13:58;13.00;1.00
75821;DHT22;64454;51.984;9.838;2023-11-19T09:16:24;13.10;1.00
75821;DHT22;64454;51.984;9.838;2023-11-19T09:18:51;13.20;1.00
75821;DHT22;64454;51.984;9.838;2023-11-19T09:21:17;13.20;1.00
75821;DHT22;64454;51.984;9.838;2023-11-19T09:23:43;13.30;1.00
75821;DHT22;64454;51.984;9.838;2023-11-19T09:26:10;13.40;1.00
75821;DHT22;64454;51.984;9.838;2023-11-19T09:28:36;13.50;1.00
75821;DHT22;64454;51.984;9.838;2023-11-19T09:31:02;13.50;1.00
75821;DHT22;64454;51.984;9.838;2023-11-19T09:33:38;13.50;1.00
75821;DHT22;64454;51.984;9.838;2023-11-19T09:36:05;13.40;1.00
75821;DHT22;64454;51.984;9.838;2023-11-19T09:38:32;13.50;1.00
75821;DHT22;64454;51.984;9.838;2023-11-19T09:40:59;13.50;1.00
75821;DHT22;64454;51.984;9.838;2023-11-19T09:43:27;13.60;1.00
75821;DHT22;64454;51.984;9.838;2023-11-19T09:45:55;13.70;1.00
75821;DHT22;64454;51.984;9.838;2023-11-19T09:48:25;13.90;1.00
75821;DHT22;64454;51.984;9.838;2023-11-19T09:50:52;13.90;1.00
75821;DHT22;64454;51.984;9.838;2023-11-19T09:53:19;14.00;1.00
75821;DHT22;64454;51.984;9.838;2023-11-19T09:55:46;14.10;1.00
75821;DHT22;64454;51.984;9.838;2023-11-19T09:58:14;14.10;1.00
75821;DHT22;64454;51.984;9.838;2023-11-19T10:00:40;14.00;1.00
75821;DHT22;64454;51.984;9.838;2023-11-19T10:03:07;14.00;1.00
75821;DHT22;64454;51.984;9.838;2023-11-19T10:05:36;13.90;1.00
75821;DHT22;64454;51.984;9.838;2023-11-19T10:08:04;13.80;1.00
75821;DHT22;64454;51.984;9.838;2023-11-19T10:10:32;13.70;1.00
75821;DHT22;64454;51.984;9.838;2023-11-19T10:12:58;13.80;1.00
75821;DHT22;64454;51.984;9.838;2023-11-19T10:15:26;13.90;1.00
75821;DHT22;64454;51.984;9.838;2023-11-19T10:17:55;14.00;1.00
75821;DHT22;64454;51.984;9.838;2023-11-19T10:20:21;14.20;1.00
75821;DHT22;64454;51.984;9.838;2023-11-19T10:22:47;15.00;1.00
75821;DHT22;64454;51.984;9.838;2023-11-19T10:25:24;15.20;1.00
75821;DHT22;64454;51.984;9.838;2023-11-19T10:27:52;14.90;1.00
75821;DHT22;64454;51.984;9.838;2023-11-19T10:30:20;14.60;1.00
75821;DHT22;64454;51.984;9.838;2023-11-19T10:33:02;14.30;1.00
75821;DHT22;64454;51.984;9.838;2023-11-19T10:35:30;14.20;1.00
75821;DHT22;64454;51.984;9.838;2023-11-19T10:37:56;14.20;1.00
75821;DHT22;64454;51.984;9.838;2023-11-19T10:40:37;14.30;1.00
75821;DHT22;64454;51.984;9.838;2023-11-19T10:43:06;14.30;1.00
75821;DHT22;64454;51.984;9.838;2023-11-19T10:45:33;14.20;1.00
75821;DHT22;64454;51.984;9.838;2023-11-19T10:48:00;14.30;1.00
75821;DHT22;64454;51.984;9.838;2023-11-19T10:50:27;14.30;1.00
75821;DHT22;64454;51.984;9.838;2023-11-19T10:52:56;14.10;1.00
75821;DHT22;64454;51.984;9.838;2023-11-19T10:55:27;14.00;1.00
75821;DHT22;64454;51.984;9.838;2023-11-19T10:57:59;13.90;1.00
75821;DHT22;64454;51.984;9.838;2023-11-19T11:00:29;13.70;1.00
75821;DHT22;64454;51.984;9.838;2023-11-19T11:03:00;13.70;1.00
75821;DHT22;64454;51.984;9.838;2023-11-19T11:05:29;13.70;1.00
75821;DHT22;64454;51.984;9.838;2023-11-19T11:08:00;13.90;1.00
75821;DHT22;64454;51.984;9.838;2023-11-19T11:10:28;13.90;1.00
75821;DHT22;64454;51.984;9.838;2023-11-19T11:12:59;13.90;1.00
75821;DHT22;64454;51.984;9.838;2023-11-19T11:15:30;14.10;1.00
75821;DHT22;64454;51.984;9.838;2023-11-19T11:17:59;14.20;1.00
75821;DHT22;64454;51.984;9.838;2023-11-19T11:20:28;14.30;1.00
75821;DHT22;64454;51.984;9.838;2023-11-19T11:23:12;14.50;1.00
75821;DHT22;64454;51.984;9.838;2023-11-19T11:26:00;14.60;1.00
75821;DHT22;64454;51.984;9.838;2023-11-19T11:28:44;14.70;1.00
75821;DHT22;64454;51.984;9.838;2023-11-19T11:31:25;14.70;1.00
75821;DHT22;64454;51.984;9.838;2023-11-19T11:34:14;14.50;1.00
75821;DHT22;64454;51.984;9.838;2023-11-19T11:37:02;14.40;1.00
75821;DHT22;64454;51.984;9.838;2023-11-19T11:39:35;14.40;1.00
75821;DHT22;64454;51.984;9.838;2023-11-19T11:45:08;14.50;1.00
75821;DHT22;64454;51.984;9.838;2023-11-19T11:48:09;14.50;1.00
75821;DHT22;64454;51.984;9.838;2023-11-19T11:50:48;14.50;1.00
75821;DHT22;64454;51.984;9.838;2023-11-19T11:53:17;14.70;1.00
75821;DHT22;64454;51.984;9.838;2023-11-19T11:55:57;15.10;1.00
75821;DHT22;64454;51.984;9.838;2023-11-19T11:58:32;15.20;1.00
75821;DHT22;64454;51.984;9.838;2023-11-19T12:01:03;15.20;1.00
75821;DHT22;64454;51.984;9.838;2023-11-19T12:03:32;15.20;1.00
75821;DHT22;64454;51.984;9.838;2023-11-19T12:05:58;15.00;1.00
75821;DHT22;64454;51.984;9.838;2023-11-19T12:08:27;15.30;1.00
75821;DHT22;64454;51.984;9.838;2023-11-19T12:10:56;15.70;1.00
75821;DHT22;64454;51.984;9.838;2023-11-19T12:13:46;15.60;1.00
75821;DHT22;64454;51.984;9.838;2023-11-19T12:16:14;15.50;1.00
75821;DHT22;64454;51.984;9.838;2023-11-19T12:18:40;15.50;1.00
75821;DHT22;64454;51.984;9.838;2023-11-19T12:21:07;15.30;1.00
75821;DHT22;64454;51.984;9.838;2023-11-19T12:23:44;15.20;1.00
75821;DHT22;64454;51.984;9.838;2023-11-19T12:26:37;15.20;1.00
75821;DHT22;64454;51.984;9.838;2023-11-19T12:29:04;15.10;1.00
75821;DHT22;64454;51.984;9.838;2023-11-19T12:31:31;15.00;1.00
75821;DHT22;64454;51.984;9.838;2023-11-19T12:34:05;15.00;1.00
75821;DHT22;64454;51.984;9.838;2023-11-19T12:36:38;14.80;1.00
75821;DHT22;64454;51.984;9.838;2023-11-19T12:39:06;14.70;1.00
75821;DHT22;64454;51.984;9.838;2023-11-19T12:41:32;14.50;1.00
75821;DHT22;64454;51.984;9.838;2023-11-19T12:44:14;14.40;1.00
75821;DHT22;64454;51.984;9.838;2023-11-19T12:46:41;14.40;1.00
75821;DHT22;64454;51.984;9.838;2023-11-19T12:49:11;14.30;1.00
75821;DHT22;64454;51.984;9.838;2023-11-19T12:51:38;14.20;1.00
75821;DHT22;64454;51.984;9.838;2023-11-19T12:54:05;14.20;1.00
75821;DHT22;64454;51.984;9.838;2023-11-19T12:56:31;14.20;1.00
75821;DHT22;64454;51.984;9.838;2023-11-19T12:59:01;14.20;1.00
75821;DHT22;64454;51.984;9.838;2023-11-19T13:01:37;14.20;1.00
75821;DHT22;64454;51.984;9.838;2023-11-19T13:04:17;14.10;1.00
75821;DHT22;64454;51.984;9.838;2023-11-19T13:06:45;14.00;1.00
75821;DHT22;64454;51.984;9.838;2023-11-19T13:09:21;14.00;1.00
75821;DHT22;64454;51.984;9.838;2023-11-19T13:11:49;13.90;1.00
75821;DHT22;64454;51.984;9.838;2023-11-19T13:14:16;13.90;1.00
75821;DHT22;64454;51.984;9.838;2023-11-19T13:16:42;13.90;1.00
75821;DHT22;64454;51.984;9.838;2023-11-19T13:19:09;13.90;1.00
75821;DHT22;64454;51.984;9.838;2023-11-19T13:21:36;13.90;1.00
75821;DHT22;64454;51.984;9.838;2023-11-19T13:24:03;13.90;1.00
75821;DHT22;64454;51.984;9.838;2023-11-19T13:26:31;14.00;1.00
75821;DHT22;64454;51.984;9.838;2023-11-19T13:28:57;13.90;1.00
75821;DHT22;64454;51.984;9.838;2023-11-19T13:31:25;13.90;1.00
75821;DHT22;64454;51.984;9.838;2023-11-19T13:33:51;13.90;1.00
75821;DHT22;64454;51.984;9.838;2023-11-19T13:36:17;14.00;1.00
75821;DHT22;64454;51.984;9.838;2023-11-19T13:38:45;13.90;1.00
75821;DHT22;64454;51.984;9.838;2023-11-19T13:41:12;14.10;1.00
75821;DHT22;64454;51.984;9.838;2023-11-19T13:43:40;14.30;1.00
75821;DHT22;64454;51.984;9.838;2023-11-19T13:46:06;14.40;1.00
75821;DHT22;64454;51.984;9.838;2023-11-19T13:48:35;14.50;1.00
75821;DHT22;64454;51.984;9.838;2023-11-19T13:51:01;14.60;1.00
75821;DHT22;64454;51.984;9.838;2023-11-19T13:53:28;14.60;1.00
75821;DHT22;64454;51.984;9.838;2023-11-19T13:55:55;14.60;1.00
75821;DHT22;64454;51.984;9.838;2023-11-19T13:58:21;14.50;1.00
75821;DHT22;64454;51.984;9.838;2023-11-19T14:00:47;14.60;1.00
75821;DHT22;64454;51.984;9.838;2023-11-19T14:03:13;14.50;1.00
75821;DHT22;64454;51.984;9.838;2023-11-19T14:05:39;14.50;1.00
75821;DHT22;64454;51.984;9.838;2023-11-19T14:08:07;14.40;1.00
75821;DHT22;64454;51.984;9.838;2023-11-19T14:10:37;14.20;1.00
75821;DHT22;64454;51.984;9.838;2023-11-19T14:13:06;14.10;1.00
75821;DHT22;64454;51.984;9.838;2023-11-19T14:15:32;13.90;1.00
75821;DHT22;64454;51.984;9.838;2023-11-19T14:17:58;13.70;1.00
75821;DHT22;64454;51.984;9.838;2023-11-19T14:20:25;13.60;1.00
75821;DHT22;64454;51.984;9.838;2023-11-19T14:22:51;13.40;1.00
75821;DHT22;64454;51.984;9.838;2023-11-19T14:25:18;13.30;1.00
75821;DHT22;64454;51.984;9.838;2023-11-19T14:27:44;13.40;1.00
75821;DHT22;64454;51.984;9.838;2023-11-19T14:30:13;13.30;1.00
75821;DHT22;64454;51.984;9.838;2023-11-19T14:32:41;13.30;1.00
75821;DHT22;64454;51.984;9.838;2023-11-19T14:35:10;13.40;1.00
75821;DHT22;64454;51.984;9.838;2023-11-19T14:37:36;13.30;1.00
75821;DHT22;64454;51.984;9.838;2023-11-19T14:40:03;13.40;1.00
75821;DHT22;64454;51.984;9.838;2023-11-19T14:42:31;13.50;1.00
75821;DHT22;64454;51.984;9.838;2023-11-19T14:44:57;13.40;1.00
75821;DHT22;64454;51.984;9.838;2023-11-19T14:47:25;13.40;1.00
75821;DHT22;64454;51.984;9.838;2023-11-19T14:49:51;13.40;1.00
75821;DHT22;64454;51.984;9.838;2023-11-19T14:52:18;13.30;1.00
75821;DHT22;64454;51.984;9.838;2023-11-19T14:54:44;13.40;1.00
75821;DHT22;64454;51.984;9.838;2023-11-19T14:57:10;13.30;1.00
75821;DHT22;64454;51.984;9.838;2023-11-19T14:59:36;13.30;1.00
75821;DHT22;64454;51.984;9.838;2023-11-19T15:02:03;13.20;1.00
75821;DHT22;64454;51.984;9.838;2023-11-19T15:04:31;13.20;1.00
75821;DHT22;64454;51.984;9.838;2023-11-19T15:06:58;13.30;1.00
75821;DHT22;64454;51.984;9.838;2023-11-19T15:09:25;13.20;1.00
75821;DHT22;64454;51.984;9.838;2023-11-19T15:11:53;13.10;1.00
75821;DHT22;64454;51.984;9.838;2023-11-19T15:14:20;13.10;1.00
75821;DHT22;64454;51.984;9.838;2023-11-19T15:16:47;13.30;1.00
75821;DHT22;64454;51.984;9.838;2023-11-19T15:19:16;13.30;1.00
75821;DHT22;64454;51.984;9.838;2023-11-19T15:21:43;13.40;1.00
75821;DHT22;64454;51.984;9.838;2023-11-19T15:24:09;13.30;1.00
75821;DHT22;64454;51.984;9.838;2023-11-19T15:26:36;13.30;1.00
75821;DHT22;64454;51.984;9.838;2023-11-19T15:29:03;13.30;1.00
75821;DHT22;64454;51.984;9.838;2023-11-19T15:31:29;13.40;1.00
75821;DHT22;64454;51.984;9.838;2023-11-19T15:33:56;13.40;1.00
75821;DHT22;64454;51.984;9.838;2023-11-19T15:36:23;13.50;1.00
75821;DHT22;64454;51.984;9.838;2023-11-19T15:38:50;13.40;1.00
75821;DHT22;64454;51.984;9.838;2023-11-19T15:41:16;13.40;1.00
75821;DHT22;64454;51.984;9.838;2023-11-19T15:43:42;13.30;1.00
75821;DHT22;64454;51.984;9.838;2023-11-19T15:46:09;13.20;1.00
75821;DHT22;64454;51.984;9.838;2023-11-19T15:48:36;13.30;1.00